ASN logo
ASN Wikibase Occurrence # 248218
Last updated: 14 September 2021
This information is added by users of ASN. Neither ASN nor the Flight Safety Foundation are responsible for the completeness or correctness of this information. If you feel this information is incomplete or incorrect, you can submit corrected information.

Date:24-FEB-2021
Time:c. 18:00 UTC
Type:Silhouette image of generic B738 model; specific model in this crash may look slightly different
Boeing 737-8EH (WL)
Owner/operator:GOL
Registration: PR-GGD
MSN: 34275/2588
Fatalities:Fatalities: 0 / Occupants: 0
Other fatalities:0
Aircraft damage: Minor
Location:São Paulo-Guarulhos International Airport, SP (GRU/SBGR) -   Brazil
Phase: Standing
Nature:-
Departure airport:-
Destination airport:-
Narrative:
A parked GOL Boeing 737-800 was hit by airstairs during a violent storm, causing damage to the airplane.

Weather report at the time:
SBGR 241815Z 15010KT 6000 -TSRA BKN030 FEW040CB 20/20 Q1016 RERA
SBGR 241800Z 19024G39KT 2000 R09R/0650D R09L/0750D R27R/0800D R27L/0800D +TSRA BKN013 BKN020 FEW040CB 19/18 Q1015
SBGR 241745Z 21014G26KT 3000 +TSRA BKN020 FEW040CB 21/19 Q1016

Sources:

Other Photos:

http://www.goklerdeyiz.net/merdiven-araci-yolcu-ucagina-carpti-2/

https://vejasp.abril.com.br/cidades/escada-aviao-aeroporto-guarulhos-ventania/

Other occurrences involving this aircraft

4 Mar 2014 PR-GGD Gol Linhas Aereas 0 Buenos Aires-Jorge Newbery Airport, BA (AEP/SABE) sub

Media:


Images:

Photo of PR-GGD courtesy AirHistory.net


Rio de Janeiro - Santos Dumont (SBRJ / SDU)
13 November 2013; (c) LRS747

Revision history:

Date/timeContributorUpdates
25-Feb-2021 07:06 gerard57 Added
25-Feb-2021 08:25 harro Updated [Time, Aircraft type, Cn, Nature, Departure airport, Destination airport, Embed code, Narrative]
25-Feb-2021 18:17 Goklerdeyiz.net Updated [Source, Embed code]

Corrections or additions? ... Edit this accident description